createdAt,value
2018-12-10T00:01:36.032Z,6.13
2018-12-10T00:04:04.640Z,6.11
2018-12-10T00:06:34.099Z,6.07
2018-12-10T00:09:01.692Z,6.04
2018-12-10T00:11:29.513Z,6.03
2018-12-10T00:13:58.549Z,6.01
2018-12-10T00:16:26.117Z,5.99
2018-12-10T00:18:54.556Z,5.97
2018-12-10T00:21:22.192Z,5.97
2018-12-10T00:23:50.483Z,5.97
2018-12-10T00:26:18.076Z,5.99
2018-12-10T00:28:45.983Z,6.01
2018-12-10T00:31:13.588Z,6.03
2018-12-10T00:33:42.137Z,6.05
2018-12-10T00:36:09.757Z,6.04
2018-12-10T00:38:39.299Z,6.04
2018-12-10T00:41:06.926Z,6.02
2018-12-10T00:43:34.515Z,6.02
2018-12-10T00:46:03.298Z,6.01
2018-12-10T00:48:31.406Z,5.96
2018-12-10T00:51:00.675Z,5.90
2018-12-10T00:53:28.288Z,5.86
2018-12-10T00:55:56.260Z,5.84
2018-12-10T00:58:24.558Z,5.85
2018-12-10T01:00:53.069Z,5.86
2018-12-10T01:03:20.706Z,5.87
2018-12-10T01:05:48.718Z,5.87
2018-12-10T01:08:16.599Z,5.87
2018-12-10T01:10:45.373Z,5.86
2018-12-10T01:13:12.949Z,5.85
2018-12-10T01:15:40.956Z,5.82
2018-12-10T01:18:08.543Z,5.76
2018-12-10T01:20:36.177Z,5.71
2018-12-10T01:23:03.791Z,5.65
2018-12-10T01:25:31.866Z,5.58
2018-12-10T01:27:59.513Z,5.51
2018-12-10T01:30:27.164Z,5.45
2018-12-10T01:32:55.776Z,5.39
2018-12-10T01:35:23.965Z,5.35
2018-12-10T01:37:51.593Z,5.31
2018-12-10T01:40:19.215Z,5.26
2018-12-10T01:42:46.833Z,5.27
2018-12-10T01:45:14.878Z,5.32
2018-12-10T01:47:42.493Z,5.37
2018-12-10T01:50:10.069Z,5.40
2018-12-10T01:52:37.652Z,5.43
2018-12-10T01:55:05.736Z,5.44
2018-12-10T01:57:33.349Z,5.45
2018-12-10T02:00:00.938Z,5.47
2018-12-10T02:02:28.525Z,5.47
2018-12-10T02:04:56.488Z,5.47
2018-12-10T02:07:24.138Z,5.43
2018-12-10T02:09:51.752Z,5.41
2018-12-10T02:12:19.802Z,5.35
2018-12-10T02:14:47.431Z,5.31
2018-12-10T02:17:15.855Z,5.32
2018-12-10T02:19:43.432Z,5.33
2018-12-10T02:22:11.488Z,5.37
2018-12-10T02:24:39.104Z,5.39
2018-12-10T02:27:06.769Z,5.41
2018-12-10T02:29:34.393Z,5.39
2018-12-10T02:32:02.402Z,5.37
2018-12-10T02:34:29.972Z,5.33
2018-12-10T02:36:57.554Z,5.31
2018-12-10T02:39:25.158Z,5.31
2018-12-10T02:41:52.751Z,5.33
2018-12-10T02:44:20.347Z,5.34
2018-12-10T02:46:47.930Z,5.35
2018-12-10T02:49:15.963Z,5.38
2018-12-10T02:51:43.590Z,5.41
2018-12-10T02:54:11.176Z,5.45
2018-12-10T02:56:39.368Z,5.48
2018-12-10T02:59:07.414Z,5.50
2018-12-10T03:01:35.025Z,5.49
2018-12-10T03:04:02.671Z,5.47
2018-12-10T03:06:30.332Z,5.43
2018-12-10T03:08:58.244Z,5.39
2018-12-10T03:11:25.873Z,5.35
2018-12-10T03:13:53.452Z,5.30
2018-12-10T03:16:21.050Z,5.23
2018-12-10T03:18:48.972Z,5.16
2018-12-10T03:21:16.556Z,5.12
2018-12-10T03:23:44.135Z,5.06
2018-12-10T03:26:11.810Z,5.01
2018-12-10T03:28:39.732Z,4.97
2018-12-10T03:31:07.336Z,4.92
2018-12-10T03:33:34.979Z,4.88
2018-12-10T03:36:02.610Z,4.83
2018-12-10T03:38:30.552Z,4.79
2018-12-10T03:40:58.182Z,4.80
2018-12-10T03:43:25.833Z,4.81
2018-12-10T03:45:53.466Z,4.81
2018-12-10T03:48:21.475Z,4.81
2018-12-10T03:50:49.112Z,4.82
2018-12-10T03:53:16.749Z,4.85
2018-12-10T03:55:44.334Z,4.89
2018-12-10T03:58:12.268Z,4.97
2018-12-10T04:00:39.838Z,5.02
2018-12-10T04:03:07.450Z,5.05
2018-12-10T04:05:35.068Z,5.09
2018-12-10T04:08:03.052Z,5.12
2018-12-10T04:10:30.657Z,5.12
2018-12-10T04:12:58.308Z,5.08
2018-12-10T04:15:25.928Z,5.00
2018-12-10T04:17:54.119Z,4.89
2018-12-10T04:20:21.677Z,4.79
2018-12-10T04:22:49.354Z,4.69
2018-12-10T04:25:16.972Z,4.62
2018-12-10T04:27:44.886Z,4.52
2018-12-10T04:30:12.497Z,4.47
2018-12-10T04:32:40.085Z,4.41
2018-12-10T04:35:08.160Z,4.38
2018-12-10T04:37:35.762Z,4.35
2018-12-10T04:40:03.377Z,4.33
2018-12-10T04:42:31.351Z,4.32
2018-12-10T04:44:58.929Z,4.33
2018-12-10T04:47:26.536Z,4.32
2018-12-10T04:49:54.153Z,4.31
2018-12-10T04:52:22.159Z,4.33
2018-12-10T04:54:49.794Z,4.37
2018-12-10T04:57:17.378Z,4.40
2018-12-10T04:59:52.581Z,4.44
2018-12-10T05:02:14.610Z,4.48
2018-12-10T05:04:42.225Z,4.54
2018-12-10T05:07:10.197Z,4.59
2018-12-10T05:09:37.810Z,4.59
2018-12-10T05:12:05.393Z,4.60
2018-12-10T05:14:33.024Z,4.62
2018-12-10T05:17:00.973Z,4.66
2018-12-10T05:19:28.867Z,4.71
2018-12-10T05:21:56.727Z,4.74
2018-12-10T05:24:24.373Z,4.75
2018-12-10T05:26:52.465Z,4.78
2018-12-10T05:29:20.104Z,4.80
2018-12-10T05:31:47.726Z,4.84
2018-12-10T05:34:15.700Z,4.88
2018-12-10T05:36:43.298Z,4.91
2018-12-10T05:39:10.909Z,4.90
2018-12-10T05:41:38.892Z,4.88
2018-12-10T05:44:06.515Z,4.88
2018-12-10T05:46:34.088Z,4.92
2018-12-10T05:49:02.055Z,4.96
2018-12-10T05:51:29.662Z,4.97
2018-12-10T05:53:57.626Z,4.98
2018-12-10T05:56:25.702Z,5.02
2018-12-10T05:58:54.461Z,5.05
2018-12-10T06:01:23.030Z,5.08
2018-12-10T06:03:51.811Z,5.05
2018-12-10T06:06:19.400Z,5.01
2018-12-10T06:08:47.044Z,4.96
2018-12-10T06:11:14.652Z,4.95
2018-12-10T06:13:42.240Z,4.93
2018-12-10T06:16:10.096Z,4.90
2018-12-10T06:18:37.682Z,4.86
2018-12-10T06:21:05.366Z,4.84
2018-12-10T06:23:33.261Z,4.80
2018-12-10T06:26:00.845Z,4.76
2018-12-10T06:28:28.412Z,4.75
2018-12-10T06:30:56.489Z,4.72
2018-12-10T06:33:25.029Z,4.70
2018-12-10T06:35:52.661Z,4.71
2018-12-10T06:38:20.577Z,4.75
2018-12-10T06:40:48.159Z,4.80
2018-12-10T06:43:15.788Z,4.86
2018-12-10T06:45:43.940Z,4.90
2018-12-10T06:48:11.566Z,4.91
2018-12-10T06:50:39.212Z,4.94
2018-12-10T06:53:07.169Z,4.95
2018-12-10T06:55:34.788Z,4.98
2018-12-10T06:58:02.417Z,5.01
2018-12-10T07:00:30.444Z,5.05
2018-12-10T07:02:58.428Z,5.08
2018-12-10T07:05:26.031Z,5.07
2018-12-10T07:07:53.955Z,5.02
2018-12-10T07:10:21.524Z,4.96
2018-12-10T07:12:49.130Z,4.86
2018-12-10T07:15:17.066Z,4.74
2018-12-10T07:17:44.737Z,4.65
2018-12-10T07:20:12.353Z,4.57
2018-12-10T07:22:40.426Z,4.48
2018-12-10T07:25:08.834Z,4.40
2018-12-10T07:27:36.444Z,4.34
2018-12-10T07:30:05.221Z,4.30
2018-12-10T07:32:33.536Z,4.28
2018-12-10T07:35:01.150Z,4.26
2018-12-10T07:37:29.163Z,4.22
2018-12-10T07:39:56.739Z,4.19
2018-12-10T07:42:24.350Z,4.15
2018-12-10T07:44:52.325Z,4.13
2018-12-10T07:47:19.953Z,4.10
2018-12-10T07:49:47.583Z,4.09
2018-12-10T07:52:16.255Z,4.10
2018-12-10T07:54:43.889Z,4.13
2018-12-10T07:57:11.484Z,4.18
2018-12-10T07:59:40.363Z,4.23
2018-12-10T08:02:07.998Z,4.24
2018-12-10T08:04:36.491Z,4.27
2018-12-10T08:07:04.444Z,4.29
2018-12-10T08:09:32.061Z,4.30
2018-12-10T08:11:59.701Z,4.33
2018-12-10T08:14:29.557Z,4.38
2018-12-10T08:16:57.196Z,4.48
2018-12-10T08:19:25.441Z,4.57
2018-12-10T08:21:53.398Z,4.65
2018-12-10T08:24:21.225Z,4.70
2018-12-10T08:26:48.849Z,4.76
2018-12-10T08:29:16.895Z,4.84
2018-12-10T08:31:44.484Z,4.92
2018-12-10T08:34:12.064Z,5.01
2018-12-10T08:36:40.001Z,5.06
2018-12-10T08:39:07.612Z,5.09
2018-12-10T08:41:35.203Z,5.11
2018-12-10T08:44:03.085Z,5.09
2018-12-10T08:46:30.696Z,5.08
2018-12-10T08:48:58.268Z,5.05
2018-12-10T08:51:27.017Z,5.05
2018-12-10T08:53:54.647Z,5.06
2018-12-10T08:56:22.395Z,5.06
2018-12-10T08:58:50.387Z,5.08
2018-12-10T09:01:18.000Z,5.15
2018-12-10T09:03:45.609Z,5.26
2018-12-10T09:06:13.712Z,5.35
2018-12-10T09:08:41.342Z,5.43
2018-12-10T09:11:08.925Z,5.47
2018-12-10T09:13:36.556Z,5.52
2018-12-10T09:16:04.146Z,5.53
2018-12-10T09:18:32.201Z,5.51
2018-12-10T09:21:00.790Z,5.48
2018-12-10T09:23:28.469Z,5.46
2018-12-10T09:25:57.189Z,5.47
2018-12-10T09:28:24.830Z,5.52
2018-12-10T09:30:52.485Z,5.65
2018-12-10T09:33:20.450Z,5.85
2018-12-10T09:35:48.120Z,6.02
2018-12-10T09:38:15.797Z,6.06
2018-12-10T09:40:43.842Z,6.07
2018-12-10T09:43:11.636Z,6.02
2018-12-10T09:45:39.265Z,5.91
2018-12-10T09:48:07.262Z,5.76
2018-12-10T09:50:35.674Z,5.61
2018-12-10T09:53:03.315Z,5.47
2018-12-10T09:55:31.514Z,5.38
2018-12-10T09:58:00.094Z,5.31
2018-12-10T10:00:27.706Z,5.27
2018-12-10T10:02:55.677Z,5.27
2018-12-10T10:05:24.128Z,5.26
2018-12-10T10:07:51.762Z,5.26
2018-12-10T10:10:19.705Z,5.28
2018-12-10T10:12:47.694Z,5.31
2018-12-10T10:15:15.324Z,5.31
2018-12-10T10:17:44.300Z,5.35
2018-12-10T10:20:12.748Z,5.39
2018-12-10T10:22:44.552Z,5.44
2018-12-10T10:25:12.606Z,5.54
2018-12-10T10:27:40.254Z,5.59
2018-12-10T10:30:07.929Z,5.61
2018-12-10T10:32:37.782Z,5.65
2018-12-10T10:35:05.353Z,5.66
2018-12-10T10:37:34.942Z,5.70
2018-12-10T10:40:04.658Z,5.75
2018-12-10T10:42:44.774Z,5.78
2018-12-10T10:45:12.726Z,5.79
2018-12-10T10:47:40.328Z,5.81
2018-12-10T10:50:07.975Z,5.82
2018-12-10T10:52:35.903Z,5.83
2018-12-10T10:55:04.460Z,5.83
2018-12-10T10:57:32.082Z,5.84
2018-12-10T11:00:02.069Z,5.85
2018-12-10T11:02:34.839Z,5.87
2018-12-10T11:05:02.473Z,5.84
2018-12-10T11:07:30.492Z,5.78
2018-12-10T11:09:58.096Z,5.66
2018-12-10T11:12:25.689Z,5.57
2018-12-10T11:14:53.352Z,5.51
2018-12-10T11:17:21.016Z,5.47
2018-12-10T11:19:49.988Z,5.46
2018-12-10T11:22:17.622Z,5.45
2018-12-10T11:24:45.317Z,5.43
2018-12-10T11:27:13.254Z,5.44
2018-12-10T11:29:40.949Z,5.43
2018-12-10T11:32:08.571Z,5.42
2018-12-10T11:34:36.584Z,5.41
2018-12-10T11:37:05.073Z,5.41
2018-12-10T11:39:32.673Z,5.44
2018-12-10T11:42:00.733Z,5.47
2018-12-10T11:44:30.297Z,5.55
2018-12-10T11:46:57.917Z,5.61
2018-12-10T11:49:26.445Z,5.64
2018-12-10T11:51:54.836Z,5.69
2018-12-10T11:54:22.645Z,5.76
2018-12-10T11:56:51.327Z,5.84
2018-12-10T11:59:19.097Z,5.89
2018-12-10T12:01:46.741Z,5.92
2018-12-10T12:04:15.485Z,5.94
2018-12-10T12:06:44.122Z,5.99
2018-12-10T12:09:11.775Z,6.02
2018-12-10T12:11:39.739Z,6.08
2018-12-10T12:14:07.372Z,6.13
2018-12-10T12:16:35.017Z,6.11
2018-12-10T12:19:11.231Z,6.04
2018-12-10T12:21:35.260Z,5.99
2018-12-10T12:24:02.873Z,5.98
2018-12-10T12:26:31.453Z,5.98
2018-12-10T12:29:00.636Z,6.00
2018-12-10T12:31:28.228Z,6.00
2018-12-10T12:33:56.666Z,6.01
2018-12-10T12:36:24.284Z,6.02
2018-12-10T12:38:51.915Z,6.03
2018-12-10T12:41:19.892Z,6.05
2018-12-10T12:43:47.985Z,6.06
2018-12-10T12:46:15.636Z,6.06
2018-12-10T12:48:43.671Z,6.05
2018-12-10T12:51:12.654Z,6.06
2018-12-10T12:53:40.614Z,6.08
2018-12-10T12:56:08.543Z,6.10
2018-12-10T12:58:36.928Z,6.12
2018-12-10T13:01:05.418Z,6.15
2018-12-10T13:03:34.317Z,6.15
2018-12-10T13:06:06.835Z,6.13
2018-12-10T13:08:38.199Z,6.09
2018-12-10T13:11:06.154Z,6.04
2018-12-10T13:13:34.269Z,6.03
2018-12-10T13:16:01.913Z,6.01
2018-12-10T13:18:32.253Z,5.96
2018-12-10T13:21:00.562Z,5.88
2018-12-10T13:23:30.944Z,5.77
2018-12-10T13:25:58.983Z,5.63
2018-12-10T13:28:27.213Z,5.49
2018-12-10T13:30:55.821Z,5.37
2018-12-10T13:33:23.746Z,5.26
2018-12-10T13:35:53.052Z,5.16
2018-12-10T13:38:20.701Z,5.09
2018-12-10T13:40:48.748Z,5.05
2018-12-10T13:43:16.388Z,5.03
2018-12-10T13:45:43.984Z,5.03
2018-12-10T13:48:12.046Z,5.11
2018-12-10T13:50:39.733Z,5.28
2018-12-10T13:53:07.393Z,5.50
2018-12-10T13:55:35.475Z,5.58
2018-12-10T13:58:03.104Z,5.57
2018-12-10T14:00:31.548Z,5.53
2018-12-10T14:03:03.483Z,5.51
2018-12-10T14:05:31.838Z,5.53
2018-12-10T14:07:59.449Z,5.57
2018-12-10T14:10:27.341Z,5.60
2018-12-10T14:12:55.980Z,5.66
2018-12-10T14:15:24.105Z,5.69
2018-12-10T14:17:58.880Z,5.72
2018-12-10T14:20:28.007Z,5.74
2018-12-10T14:22:56.700Z,5.81
2018-12-10T14:25:24.339Z,5.88
2018-12-10T14:27:51.989Z,5.94
2018-12-10T14:30:19.952Z,5.99
2018-12-10T14:32:48.161Z,6.03
2018-12-10T14:35:16.773Z,6.04
2018-12-10T14:37:44.866Z,6.04
2018-12-10T14:40:13.241Z,6.03
2018-12-10T14:42:42.105Z,6.02
2018-12-10T14:45:10.109Z,6.01
2018-12-10T14:47:37.772Z,5.98
2018-12-10T14:50:05.396Z,5.98
2018-12-10T14:52:33.474Z,5.97
2018-12-10T14:55:01.071Z,5.94
2018-12-10T14:57:28.754Z,5.89
2018-12-10T14:59:58.639Z,5.77
2018-12-10T15:02:28.086Z,5.55
2018-12-10T15:04:56.326Z,5.33
2018-12-10T15:07:24.401Z,5.05
2018-12-10T15:09:52.152Z,4.80
2018-12-10T15:14:53.723Z,4.45
2018-12-10T15:17:22.523Z,4.33
2018-12-10T15:19:50.644Z,4.23
2018-12-10T15:22:18.259Z,4.16
2018-12-10T15:24:45.848Z,4.13
2018-12-10T15:27:14.536Z,4.10
2018-12-10T15:29:42.383Z,4.07
2018-12-10T15:32:11.150Z,4.05
2018-12-10T15:34:39.290Z,4.00
2018-12-10T15:37:06.928Z,3.96
2018-12-10T15:39:35.225Z,3.89
2018-12-10T15:42:03.304Z,3.85
2018-12-10T15:44:32.432Z,3.81
2018-12-10T15:47:00.785Z,3.78
2018-12-10T15:49:29.493Z,3.77
2018-12-10T15:51:57.082Z,3.74
2018-12-10T15:54:25.393Z,3.73
2018-12-10T15:56:53.545Z,3.73
2018-12-10T15:59:21.167Z,3.71
2018-12-10T16:01:48.793Z,3.68
2018-12-10T16:04:16.785Z,3.69
2018-12-10T16:06:44.396Z,3.68
2018-12-10T16:09:11.973Z,3.68
2018-12-10T16:11:40.057Z,3.70
2018-12-10T16:14:07.737Z,3.74
2018-12-10T16:16:35.645Z,3.79
2018-12-10T16:19:04.229Z,3.86
2018-12-10T16:21:32.814Z,3.91
2018-12-10T16:24:00.449Z,3.92
2018-12-10T16:26:28.636Z,3.93
2018-12-10T16:28:57.380Z,3.91
2018-12-10T16:31:25.992Z,3.88
2018-12-10T16:33:54.106Z,3.84
2018-12-10T16:36:21.902Z,3.80
2018-12-10T16:38:50.454Z,3.78
2018-12-10T16:41:20.410Z,3.73
2018-12-10T16:43:48.605Z,3.70
2018-12-10T16:46:16.273Z,3.67
2018-12-10T16:48:44.303Z,3.63
2018-12-10T16:51:12.482Z,3.61
2018-12-10T16:53:40.130Z,3.60
2018-12-10T16:56:08.109Z,3.59
2018-12-10T16:58:35.708Z,3.58
2018-12-10T17:01:04.688Z,3.60
2018-12-10T17:03:33.690Z,3.61
2018-12-10T17:06:04.336Z,3.65
2018-12-10T17:08:31.997Z,3.74
2018-12-10T17:11:01.488Z,3.85
2018-12-10T17:13:31.152Z,3.95
2018-12-10T17:15:58.804Z,4.04
2018-12-10T17:18:26.700Z,4.11
2018-12-10T17:20:54.904Z,4.17
2018-12-10T17:23:22.491Z,4.23
2018-12-10T17:25:50.421Z,4.28
2018-12-10T17:28:18.020Z,4.28
2018-12-10T17:30:45.687Z,4.27
2018-12-10T17:33:13.638Z,4.26
2018-12-10T17:35:43.318Z,4.24
2018-12-10T17:38:11.048Z,4.22
2018-12-10T17:40:39.832Z,4.28
2018-12-10T17:43:07.557Z,4.35
2018-12-10T17:45:38.853Z,4.43
2018-12-10T17:48:06.946Z,4.51
2018-12-10T17:50:34.553Z,4.56
2018-12-10T17:53:02.190Z,4.58
2018-12-10T17:55:31.367Z,4.61
2018-12-10T17:58:00.659Z,4.63
2018-12-10T18:00:28.468Z,4.67
2018-12-10T18:02:56.485Z,4.70
2018-12-10T18:05:24.659Z,4.71
2018-12-10T18:07:53.872Z,4.70
2018-12-10T18:10:22.574Z,4.71
2018-12-10T18:12:51.269Z,4.75
2018-12-10T18:15:20.227Z,4.81
2018-12-10T18:17:48.218Z,4.83
2018-12-10T18:20:16.723Z,4.87
2018-12-10T18:22:44.742Z,4.88
2018-12-10T18:25:12.819Z,4.88
2018-12-10T18:27:40.443Z,4.88
2018-12-10T18:30:08.071Z,4.86
2018-12-10T18:32:36.745Z,4.84
2018-12-10T18:35:04.378Z,4.79
2018-12-10T18:37:32.798Z,4.79
2018-12-10T18:40:00.753Z,4.76
2018-12-10T18:42:28.423Z,4.71
2018-12-10T18:44:56.079Z,4.71
2018-12-10T18:47:24.836Z,4.73
2018-12-10T18:49:52.433Z,4.77
2018-12-10T18:52:20.844Z,4.79
2018-12-10T18:54:48.789Z,4.79
2018-12-10T18:57:16.437Z,4.72
2018-12-10T18:59:44.793Z,4.68
2018-12-10T19:02:14.366Z,4.66
2018-12-10T19:04:43.455Z,4.62
2018-12-10T19:07:13.137Z,4.58
2018-12-10T19:09:42.524Z,4.56
2018-12-10T19:12:10.185Z,4.52
2018-12-10T19:14:37.842Z,4.48
2018-12-10T19:17:05.880Z,4.42
2018-12-10T19:19:34.749Z,4.40
2018-12-10T19:22:02.433Z,4.42
2018-12-10T19:24:31.516Z,4.45
2018-12-10T19:27:00.264Z,4.42
2018-12-10T19:29:28.453Z,4.38
2018-12-10T19:31:56.373Z,4.38
2018-12-10T19:34:23.965Z,4.44
2018-12-10T19:36:53.255Z,4.50
2018-12-10T19:39:21.436Z,4.57
2018-12-10T19:41:49.925Z,4.61
2018-12-10T19:44:17.505Z,4.62
2018-12-10T19:46:45.391Z,4.64
2018-12-10T19:49:13.793Z,4.66
2018-12-10T19:51:41.423Z,4.68
2018-12-10T19:54:09.461Z,4.70
2018-12-10T19:56:37.445Z,4.73
2018-12-10T19:59:05.823Z,4.73
2018-12-10T20:01:34.265Z,4.73
2018-12-10T20:04:01.937Z,4.72
2018-12-10T20:06:32.619Z,4.69
2018-12-10T20:09:01.096Z,4.65
2018-12-10T20:11:28.834Z,4.63
2018-12-10T20:13:56.490Z,4.67
2018-12-10T20:16:25.793Z,4.69
2018-12-10T20:18:53.482Z,4.73
2018-12-10T20:21:23.401Z,4.77
2018-12-10T20:23:51.682Z,4.78
2018-12-10T20:26:20.652Z,4.78
2018-12-10T20:28:48.630Z,4.80
2018-12-10T20:31:17.121Z,4.78
2018-12-10T20:33:44.773Z,4.79
2018-12-10T20:36:12.727Z,4.75
2018-12-10T20:38:40.411Z,4.71
2018-12-10T20:41:08.041Z,4.71
2018-12-10T20:43:36.607Z,4.74
2018-12-10T20:46:04.226Z,4.77
2018-12-10T20:48:31.854Z,4.79
2018-12-10T20:51:00.634Z,4.81
2018-12-10T20:53:29.054Z,4.79
2018-12-10T20:55:56.634Z,4.71
2018-12-10T20:58:25.114Z,4.61
2018-12-10T21:00:52.704Z,4.53
2018-12-10T21:03:20.301Z,4.49
2018-12-10T21:05:53.226Z,4.44
2018-12-10T21:08:21.661Z,4.40
2018-12-10T21:10:50.426Z,4.39
2018-12-10T21:13:19.520Z,4.37
2018-12-10T21:15:47.707Z,4.35
2018-12-10T21:18:21.205Z,4.33
2018-12-10T21:20:49.244Z,4.32
2018-12-10T21:23:17.411Z,4.32
2018-12-10T21:25:45.998Z,4.28
2018-12-10T21:28:13.974Z,4.27
2018-12-10T21:30:42.205Z,4.30
2018-12-10T21:33:10.805Z,4.30
2018-12-10T21:35:38.523Z,4.30
2018-12-10T21:38:06.548Z,4.32
2018-12-10T21:40:34.745Z,4.34
2018-12-10T21:43:02.653Z,4.37
2018-12-10T21:45:31.565Z,4.36
2018-12-10T21:48:00.978Z,4.34
2018-12-10T21:50:28.572Z,4.35
2018-12-10T21:52:56.542Z,4.36
2018-12-10T21:55:24.215Z,4.41
2018-12-10T21:57:52.805Z,4.44
2018-12-10T22:00:21.552Z,4.47
2018-12-10T22:02:49.198Z,4.51
2018-12-10T22:05:16.840Z,4.52
2018-12-10T22:07:44.780Z,4.54
2018-12-10T22:10:12.426Z,4.56
2018-12-10T22:12:40.076Z,4.56
2018-12-10T22:15:09.786Z,4.58
2018-12-10T22:17:37.375Z,4.58
2018-12-10T22:20:05.046Z,4.56
2018-12-10T22:22:34.324Z,4.54
2018-12-10T22:25:02.651Z,4.49
2018-12-10T22:27:30.417Z,4.50
2018-12-10T22:29:59.041Z,4.52
2018-12-10T22:32:27.277Z,4.51
2018-12-10T22:34:54.877Z,4.46
2018-12-10T22:37:22.493Z,4.44
2018-12-10T22:39:50.431Z,4.45
2018-12-10T22:42:18.017Z,4.47
2018-12-10T22:44:45.644Z,4.49
2018-12-10T22:47:13.345Z,4.51
2018-12-10T22:49:41.356Z,4.51
2018-12-10T22:52:08.968Z,4.52
2018-12-10T22:54:36.593Z,4.53
2018-12-10T22:57:07.783Z,4.51
2018-12-10T22:59:35.810Z,4.50
2018-12-10T23:02:03.460Z,4.48
2018-12-10T23:04:31.937Z,4.49
2018-12-10T23:07:00.040Z,4.46
2018-12-10T23:09:27.702Z,4.41
2018-12-10T23:11:55.386Z,4.40
2018-12-10T23:14:23.049Z,4.38
2018-12-10T23:16:50.662Z,4.37
2018-12-10T23:19:19.233Z,4.33
2018-12-10T23:21:47.124Z,4.28
2018-12-10T23:24:14.740Z,4.28
2018-12-10T23:26:42.354Z,4.28
2018-12-10T23:29:09.965Z,4.26
2018-12-10T23:31:37.963Z,4.27
2018-12-10T23:34:05.558Z,4.30
2018-12-10T23:36:33.977Z,4.32
2018-12-10T23:39:01.560Z,4.32
2018-12-10T23:41:29.584Z,4.32
2018-12-10T23:43:57.992Z,4.31
2018-12-10T23:46:27.262Z,4.31
2018-12-10T23:48:55.496Z,4.31
2018-12-10T23:51:23.435Z,4.31
2018-12-10T23:53:51.620Z,4.32
2018-12-10T23:56:19.997Z,4.30
2018-12-10T23:58:47.953Z,4.27
